sensor_id;sensor_type;location;lat;lon;timestamp;P1;durP1;ratioP1;P2;durP2;ratioP2
19619;SDS011;9957;52.282;21.110;2023-03-26T01:37:20;12.77;;;3.80;;
19619;SDS011;9957;52.282;21.110;2023-03-26T01:45:14;8.60;;;3.33;;
19619;SDS011;9957;52.282;21.110;2023-03-26T01:47:43;11.07;;;4.10;;
19619;SDS011;9957;52.282;21.110;2023-03-26T01:50:10;11.10;;;4.22;;
19619;SDS011;9957;52.282;21.110;2023-03-26T01:52:37;10.20;;;4.40;;
19619;SDS011;9957;52.282;21.110;2023-03-26T01:55:03;11.07;;;4.57;;
19619;SDS011;9957;52.282;21.110;2023-03-26T01:57:35;12.23;;;4.68;;
19619;SDS011;9957;52.282;21.110;2023-03-26T02:00:14;11.48;;;4.53;;
19619;SDS011;9957;52.282;21.110;2023-03-26T02:05:31;13.77;;;4.40;;
19619;SDS011;9957;52.282;21.110;2023-03-26T02:08:06;11.77;;;4.15;;
19619;SDS011;9957;52.282;21.110;2023-03-26T02:10:37;11.50;;;4.20;;
19619;SDS011;9957;52.282;21.110;2023-03-26T02:13:05;8.32;;;4.10;;
19619;SDS011;9957;52.282;21.110;2023-03-26T02:15:31;10.13;;;4.30;;
19619;SDS011;9957;52.282;21.110;2023-03-26T02:17:58;9.52;;;4.05;;
19619;SDS011;9957;52.282;21.110;2023-03-26T02:20:26;10.95;;;4.07;;
19619;SDS011;9957;52.282;21.110;2023-03-26T02:22:56;12.23;;;4.32;;
19619;SDS011;9957;52.282;21.110;2023-03-26T02:25:22;9.80;;;4.05;;
19619;SDS011;9957;52.282;21.110;2023-03-26T02:27:49;11.88;;;4.32;;
19619;SDS011;9957;52.282;21.110;2023-03-26T02:30:16;10.98;;;4.10;;
19619;SDS011;9957;52.282;21.110;2023-03-26T02:32:42;9.93;;;4.32;;
19619;SDS011;9957;52.282;21.110;2023-03-26T02:35:09;10.73;;;4.40;;
19619;SDS011;9957;52.282;21.110;2023-03-26T02:37:36;9.85;;;4.15;;
19619;SDS011;9957;52.282;21.110;2023-03-26T02:40:02;9.07;;;3.83;;
19619;SDS011;9957;52.282;21.110;2023-03-26T02:42:34;9.82;;;4.30;;
19619;SDS011;9957;52.282;21.110;2023-03-26T02:45:00;10.93;;;4.30;;
19619;SDS011;9957;52.282;21.110;2023-03-26T02:47:26;9.73;;;3.70;;
19619;SDS011;9957;52.282;21.110;2023-03-26T02:49:52;8.93;;;4.10;;
19619;SDS011;9957;52.282;21.110;2023-03-26T02:52:18;9.80;;;4.50;;
19619;SDS011;9957;52.282;21.110;2023-03-26T02:54:44;9.15;;;4.20;;
19619;SDS011;9957;52.282;21.110;2023-03-26T02:57:11;10.18;;;4.18;;
19619;SDS011;9957;52.282;21.110;2023-03-26T02:59:37;10.68;;;4.15;;
19619;SDS011;9957;52.282;21.110;2023-03-26T03:02:03;10.30;;;4.13;;
19619;SDS011;9957;52.282;21.110;2023-03-26T03:04:29;12.38;;;4.07;;
19619;SDS011;9957;52.282;21.110;2023-03-26T03:06:55;8.70;;;3.80;;
19619;SDS011;9957;52.282;21.110;2023-03-26T03:09:24;10.85;;;4.03;;
19619;SDS011;9957;52.282;21.110;2023-03-26T03:11:50;10.02;;;3.70;;
19619;SDS011;9957;52.282;21.110;2023-03-26T03:14:17;8.93;;;3.85;;
19619;SDS011;9957;52.282;21.110;2023-03-26T03:16:43;9.52;;;3.85;;
19619;SDS011;9957;52.282;21.110;2023-03-26T03:19:09;9.70;;;4.07;;
19619;SDS011;9957;52.282;21.110;2023-03-26T03:21:35;8.52;;;3.60;;
19619;SDS011;9957;52.282;21.110;2023-03-26T03:24:01;10.40;;;3.60;;
19619;SDS011;9957;52.282;21.110;2023-03-26T03:26:27;9.18;;;3.70;;
19619;SDS011;9957;52.282;21.110;2023-03-26T03:28:54;9.37;;;3.87;;
19619;SDS011;9957;52.282;21.110;2023-03-26T03:31:21;8.07;;;3.85;;
19619;SDS011;9957;52.282;21.110;2023-03-26T03:33:48;7.38;;;3.35;;
19619;SDS011;9957;52.282;21.110;2023-03-26T03:36:15;7.93;;;3.50;;
19619;SDS011;9957;52.282;21.110;2023-03-26T03:38:47;13.00;;;3.60;;
19619;SDS011;9957;52.282;21.110;2023-03-26T03:41:14;10.23;;;3.60;;
19619;SDS011;9957;52.282;21.110;2023-03-26T03:43:42;9.02;;;3.35;;
19619;SDS011;9957;52.282;21.110;2023-03-26T03:46:08;9.60;;;3.30;;
19619;SDS011;9957;52.282;21.110;2023-03-26T03:48:34;8.07;;;3.45;;
19619;SDS011;9957;52.282;21.110;2023-03-26T03:51:04;7.32;;;3.47;;
19619;SDS011;9957;52.282;21.110;2023-03-26T03:53:30;8.05;;;3.33;;
19619;SDS011;9957;52.282;21.110;2023-03-26T03:55:56;11.35;;;3.35;;
19619;SDS011;9957;52.282;21.110;2023-03-26T03:58:23;8.15;;;3.40;;
19619;SDS011;9957;52.282;21.110;2023-03-26T04:00:52;10.00;;;3.33;;
19619;SDS011;9957;52.282;21.110;2023-03-26T04:03:24;9.77;;;3.60;;
19619;SDS011;9957;52.282;21.110;2023-03-26T04:05:52;8.30;;;3.42;;
19619;SDS011;9957;52.282;21.110;2023-03-26T04:08:19;8.75;;;3.28;;
19619;SDS011;9957;52.282;21.110;2023-03-26T04:10:45;9.00;;;3.13;;
19619;SDS011;9957;52.282;21.110;2023-03-26T04:13:12;7.93;;;3.23;;
19619;SDS011;9957;52.282;21.110;2023-03-26T04:15:38;7.63;;;3.47;;
19619;SDS011;9957;52.282;21.110;2023-03-26T04:18:05;10.23;;;3.45;;
19619;SDS011;9957;52.282;21.110;2023-03-26T04:20:37;6.75;;;3.08;;
19619;SDS011;9957;52.282;21.110;2023-03-26T04:23:05;8.70;;;3.33;;
19619;SDS011;9957;52.282;21.110;2023-03-26T04:25:32;8.80;;;3.10;;
19619;SDS011;9957;52.282;21.110;2023-03-26T04:28:01;6.97;;;3.10;;
19619;SDS011;9957;52.282;21.110;2023-03-26T04:30:30;8.33;;;3.30;;
19619;SDS011;9957;52.282;21.110;2023-03-26T04:32:57;7.90;;;3.10;;
19619;SDS011;9957;52.282;21.110;2023-03-26T04:35:24;8.07;;;3.00;;
19619;SDS011;9957;52.282;21.110;2023-03-26T04:37:51;12.85;;;3.30;;
19619;SDS011;9957;52.282;21.110;2023-03-26T04:40:19;9.15;;;3.28;;
19619;SDS011;9957;52.282;21.110;2023-03-26T04:42:46;7.82;;;3.20;;
19619;SDS011;9957;52.282;21.110;2023-03-26T04:45:13;7.45;;;3.15;;
19619;SDS011;9957;52.282;21.110;2023-03-26T04:47:39;8.73;;;3.20;;
19619;SDS011;9957;52.282;21.110;2023-03-26T04:50:06;7.28;;;2.92;;
19619;SDS011;9957;52.282;21.110;2023-03-26T04:52:33;9.73;;;3.47;;
19619;SDS011;9957;52.282;21.110;2023-03-26T04:54:59;8.63;;;3.50;;
19619;SDS011;9957;52.282;21.110;2023-03-26T04:57:31;8.65;;;3.20;;
19619;SDS011;9957;52.282;21.110;2023-03-26T04:59:58;8.13;;;3.10;;
19619;SDS011;9957;52.282;21.110;2023-03-26T05:02:25;8.13;;;3.53;;
19619;SDS011;9957;52.282;21.110;2023-03-26T05:04:51;10.57;;;4.00;;
19619;SDS011;9957;52.282;21.110;2023-03-26T05:07:20;9.93;;;4.22;;
19619;SDS011;9957;52.282;21.110;2023-03-26T05:09:48;8.90;;;3.78;;
19619;SDS011;9957;52.282;21.110;2023-03-26T05:12:14;9.38;;;3.95;;
19619;SDS011;9957;52.282;21.110;2023-03-26T05:14:40;9.95;;;3.83;;
19619;SDS011;9957;52.282;21.110;2023-03-26T05:17:06;12.15;;;4.05;;
19619;SDS011;9957;52.282;21.110;2023-03-26T05:19:35;9.55;;;3.35;;
19619;SDS011;9957;52.282;21.110;2023-03-26T05:22:02;8.00;;;3.20;;
19619;SDS011;9957;52.282;21.110;2023-03-26T05:24:29;7.63;;;3.30;;
19619;SDS011;9957;52.282;21.110;2023-03-26T05:26:55;10.90;;;3.90;;
19619;SDS011;9957;52.282;21.110;2023-03-26T05:29:21;8.65;;;3.55;;
19619;SDS011;9957;52.282;21.110;2023-03-26T05:31:48;8.60;;;3.20;;
19619;SDS011;9957;52.282;21.110;2023-03-26T05:34:14;9.57;;;3.45;;
19619;SDS011;9957;52.282;21.110;2023-03-26T05:36:40;11.05;;;4.40;;
19619;SDS011;9957;52.282;21.110;2023-03-26T05:39:06;10.73;;;4.20;;
19619;SDS011;9957;52.282;21.110;2023-03-26T05:41:32;9.80;;;4.10;;
19619;SDS011;9957;52.282;21.110;2023-03-26T05:43:58;10.88;;;4.10;;
19619;SDS011;9957;52.282;21.110;2023-03-26T05:46:25;9.13;;;3.63;;
19619;SDS011;9957;52.282;21.110;2023-03-26T05:48:51;10.68;;;3.58;;
19619;SDS011;9957;52.282;21.110;2023-03-26T05:51:18;11.50;;;4.45;;
19619;SDS011;9957;52.282;21.110;2023-03-26T05:53:44;11.52;;;4.82;;
19619;SDS011;9957;52.282;21.110;2023-03-26T05:56:10;10.88;;;4.15;;
19619;SDS011;9957;52.282;21.110;2023-03-26T05:58:36;7.25;;;3.47;;
19619;SDS011;9957;52.282;21.110;2023-03-26T06:01:10;10.63;;;3.97;;
19619;SDS011;9957;52.282;21.110;2023-03-26T06:03:41;10.15;;;3.85;;
19619;SDS011;9957;52.282;21.110;2023-03-26T06:06:09;9.80;;;3.58;;
19619;SDS011;9957;52.282;21.110;2023-03-26T06:08:43;8.20;;;3.50;;
19619;SDS011;9957;52.282;21.110;2023-03-26T06:11:13;9.57;;;3.47;;
19619;SDS011;9957;52.282;21.110;2023-03-26T06:13:40;8.60;;;3.23;;
19619;SDS011;9957;52.282;21.110;2023-03-26T06:16:06;9.60;;;3.22;;
19619;SDS011;9957;52.282;21.110;2023-03-26T06:18:33;8.18;;;3.50;;
19619;SDS011;9957;52.282;21.110;2023-03-26T06:20:59;7.67;;;3.20;;
19619;SDS011;9957;52.282;21.110;2023-03-26T06:23:25;6.90;;;3.25;;
19619;SDS011;9957;52.282;21.110;2023-03-26T06:25:51;9.85;;;3.50;;
19619;SDS011;9957;52.282;21.110;2023-03-26T06:28:17;13.45;;;3.60;;
19619;SDS011;9957;52.282;21.110;2023-03-26T06:30:43;8.90;;;3.55;;
19619;SDS011;9957;52.282;21.110;2023-03-26T06:33:09;10.68;;;3.60;;
19619;SDS011;9957;52.282;21.110;2023-03-26T06:35:35;8.32;;;3.33;;
19619;SDS011;9957;52.282;21.110;2023-03-26T06:38:02;7.40;;;3.47;;
19619;SDS011;9957;52.282;21.110;2023-03-26T06:40:28;8.73;;;3.38;;
19619;SDS011;9957;52.282;21.110;2023-03-26T06:42:54;9.15;;;3.22;;
19619;SDS011;9957;52.282;21.110;2023-03-26T06:45:21;7.75;;;3.53;;
19619;SDS011;9957;52.282;21.110;2023-03-26T06:47:47;9.85;;;3.75;;
19619;SDS011;9957;52.282;21.110;2023-03-26T06:50:13;9.10;;;3.40;;
19619;SDS011;9957;52.282;21.110;2023-03-26T06:52:39;7.70;;;3.00;;
19619;SDS011;9957;52.282;21.110;2023-03-26T06:55:05;7.20;;;3.10;;
19619;SDS011;9957;52.282;21.110;2023-03-26T06:57:34;6.40;;;2.92;;
19619;SDS011;9957;52.282;21.110;2023-03-26T07:00:00;7.72;;;2.65;;
19619;SDS011;9957;52.282;21.110;2023-03-26T07:02:27;6.68;;;3.10;;
19619;SDS011;9957;52.282;21.110;2023-03-26T07:04:53;7.72;;;3.13;;
19619;SDS011;9957;52.282;21.110;2023-03-26T07:07:19;9.00;;;3.33;;
19619;SDS011;9957;52.282;21.110;2023-03-26T07:09:47;14.45;;;6.15;;
19619;SDS011;9957;52.282;21.110;2023-03-26T07:12:13;9.52;;;2.97;;
19619;SDS011;9957;52.282;21.110;2023-03-26T07:14:40;8.00;;;2.80;;
19619;SDS011;9957;52.282;21.110;2023-03-26T07:17:06;9.48;;;4.15;;
19619;SDS011;9957;52.282;21.110;2023-03-26T07:19:32;6.93;;;3.10;;
19619;SDS011;9957;52.282;21.110;2023-03-26T07:21:58;11.50;;;5.33;;
19619;SDS011;9957;52.282;21.110;2023-03-26T07:24:25;7.18;;;3.05;;
19619;SDS011;9957;52.282;21.110;2023-03-26T07:29:41;9.90;;;4.45;;
19619;SDS011;9957;52.282;21.110;2023-03-26T07:34:45;11.40;;;4.37;;
19619;SDS011;9957;52.282;21.110;2023-03-26T07:37:21;7.30;;;3.70;;
19619;SDS011;9957;52.282;21.110;2023-03-26T07:45:12;8.02;;;3.13;;
19619;SDS011;9957;52.282;21.110;2023-03-26T07:47:41;9.65;;;4.25;;
19619;SDS011;9957;52.282;21.110;2023-03-26T07:50:13;12.43;;;5.13;;
19619;SDS011;9957;52.282;21.110;2023-03-26T07:52:40;18.85;;;6.28;;
19619;SDS011;9957;52.282;21.110;2023-03-26T07:55:06;9.00;;;4.30;;
19619;SDS011;9957;52.282;21.110;2023-03-26T08:00:21;7.60;;;3.43;;
19619;SDS011;9957;52.282;21.110;2023-03-26T08:13:07;8.33;;;3.40;;
19619;SDS011;9957;52.282;21.110;2023-03-26T08:15:36;13.80;;;3.70;;
19619;SDS011;9957;52.282;21.110;2023-03-26T08:23:13;7.43;;;3.45;;
19619;SDS011;9957;52.282;21.110;2023-03-26T08:25:58;8.83;;;2.97;;
19619;SDS011;9957;52.282;21.110;2023-03-26T08:31:02;9.27;;;2.90;;
19619;SDS011;9957;52.282;21.110;2023-03-26T08:33:28;10.15;;;3.20;;
19619;SDS011;9957;52.282;21.110;2023-03-26T08:35:55;7.28;;;2.67;;
19619;SDS011;9957;52.282;21.110;2023-03-26T08:38:21;5.95;;;3.10;;
19619;SDS011;9957;52.282;21.110;2023-03-26T08:56:25;7.43;;;3.38;;
19619;SDS011;9957;52.282;21.110;2023-03-26T09:01:37;7.45;;;3.10;;
19619;SDS011;9957;52.282;21.110;2023-03-26T09:22:51;6.57;;;3.33;;
19619;SDS011;9957;52.282;21.110;2023-03-26T09:28:12;10.63;;;4.10;;
19619;SDS011;9957;52.282;21.110;2023-03-26T09:38:43;6.07;;;3.10;;
19619;SDS011;9957;52.282;21.110;2023-03-26T09:46:26;10.53;;;4.23;;
19619;SDS011;9957;52.282;21.110;2023-03-26T09:59:30;9.33;;;4.10;;
19619;SDS011;9957;52.282;21.110;2023-03-26T10:07:16;18.60;;;6.65;;
19619;SDS011;9957;52.282;21.110;2023-03-26T10:10:12;5.82;;;3.25;;
19619;SDS011;9957;52.282;21.110;2023-03-26T10:12:43;11.73;;;5.32;;
19619;SDS011;9957;52.282;21.110;2023-03-26T10:18:02;22.63;;;10.13;;
19619;SDS011;9957;52.282;21.110;2023-03-26T10:20:36;14.23;;;7.20;;
19619;SDS011;9957;52.282;21.110;2023-03-26T10:28:25;13.90;;;5.60;;
19619;SDS011;9957;52.282;21.110;2023-03-26T10:41:50;8.40;;;4.35;;
19619;SDS011;9957;52.282;21.110;2023-03-26T10:50:00;4.10;;;2.53;;
19619;SDS011;9957;52.282;21.110;2023-03-26T10:52:40;3.55;;;2.10;;
19619;SDS011;9957;52.282;21.110;2023-03-26T10:57:51;4.53;;;2.20;;
19619;SDS011;9957;52.282;21.110;2023-03-26T11:00:19;6.22;;;1.65;;
19619;SDS011;9957;52.282;21.110;2023-03-26T11:05:45;4.80;;;1.20;;
19619;SDS011;9957;52.282;21.110;2023-03-26T11:15:37;2.92;;;1.10;;
19619;SDS011;9957;52.282;21.110;2023-03-26T11:18:09;2.58;;;1.30;;
19619;SDS011;9957;52.282;21.110;2023-03-26T11:20:50;4.20;;;2.05;;
19619;SDS011;9957;52.282;21.110;2023-03-26T11:23:39;3.55;;;1.77;;
19619;SDS011;9957;52.282;21.110;2023-03-26T11:26:12;4.05;;;1.80;;
19619;SDS011;9957;52.282;21.110;2023-03-26T11:33:48;5.28;;;2.83;;
19619;SDS011;9957;52.282;21.110;2023-03-26T11:36:25;5.47;;;2.50;;
19619;SDS011;9957;52.282;21.110;2023-03-26T11:38:54;6.38;;;2.70;;
19619;SDS011;9957;52.282;21.110;2023-03-26T11:41:26;4.68;;;2.40;;
19619;SDS011;9957;52.282;21.110;2023-03-26T11:43:59;3.35;;;2.28;;
19619;SDS011;9957;52.282;21.110;2023-03-26T11:46:28;4.47;;;2.28;;
19619;SDS011;9957;52.282;21.110;2023-03-26T11:48:56;5.35;;;2.42;;
19619;SDS011;9957;52.282;21.110;2023-03-26T11:51:30;5.90;;;2.65;;
19619;SDS011;9957;52.282;21.110;2023-03-26T11:53:58;3.80;;;2.13;;
19619;SDS011;9957;52.282;21.110;2023-03-26T11:56:31;4.43;;;2.35;;
19619;SDS011;9957;52.282;21.110;2023-03-26T12:04:12;6.63;;;3.38;;
19619;SDS011;9957;52.282;21.110;2023-03-26T12:06:49;11.85;;;4.55;;
19619;SDS011;9957;52.282;21.110;2023-03-26T12:09:16;4.72;;;2.20;;
19619;SDS011;9957;52.282;21.110;2023-03-26T12:11:42;4.97;;;1.90;;
19619;SDS011;9957;52.282;21.110;2023-03-26T12:14:14;4.00;;;1.40;;
19619;SDS011;9957;52.282;21.110;2023-03-26T12:16:55;3.00;;;1.48;;
19619;SDS011;9957;52.282;21.110;2023-03-26T12:19:21;2.90;;;1.47;;
19619;SDS011;9957;52.282;21.110;2023-03-26T12:21:49;3.90;;;1.58;;
19619;SDS011;9957;52.282;21.110;2023-03-26T12:24:29;4.40;;;1.83;;
19619;SDS011;9957;52.282;21.110;2023-03-26T12:27:18;6.75;;;2.80;;
19619;SDS011;9957;52.282;21.110;2023-03-26T12:29:49;5.88;;;2.67;;
19619;SDS011;9957;52.282;21.110;2023-03-26T12:32:15;14.13;;;6.25;;
19619;SDS011;9957;52.282;21.110;2023-03-26T12:34:41;6.28;;;2.90;;
19619;SDS011;9957;52.282;21.110;2023-03-26T12:42:39;6.35;;;3.13;;
19619;SDS011;9957;52.282;21.110;2023-03-26T12:45:06;9.48;;;3.53;;
19619;SDS011;9957;52.282;21.110;2023-03-26T12:47:37;5.68;;;3.03;;
19619;SDS011;9957;52.282;21.110;2023-03-26T12:50:03;5.22;;;2.28;;
19619;SDS011;9957;52.282;21.110;2023-03-26T12:55:54;8.85;;;2.78;;
19619;SDS011;9957;52.282;21.110;2023-03-26T13:05:42;2.67;;;1.67;;
19619;SDS011;9957;52.282;21.110;2023-03-26T13:15:58;4.22;;;2.03;;
19619;SDS011;9957;52.282;21.110;2023-03-26T13:20:54;5.40;;;2.30;;
19619;SDS011;9957;52.282;21.110;2023-03-26T13:28:39;4.78;;;2.20;;
19619;SDS011;9957;52.282;21.110;2023-03-26T13:31:26;5.25;;;2.17;;
19619;SDS011;9957;52.282;21.110;2023-03-26T13:46:44;3.58;;;1.90;;
19619;SDS011;9957;52.282;21.110;2023-03-26T13:49:14;4.25;;;2.00;;
19619;SDS011;9957;52.282;21.110;2023-03-26T13:54:17;6.63;;;1.95;;
19619;SDS011;9957;52.282;21.110;2023-03-26T13:56:46;3.08;;;1.73;;
19619;SDS011;9957;52.282;21.110;2023-03-26T13:59:21;3.53;;;1.77;;
19619;SDS011;9957;52.282;21.110;2023-03-26T14:01:59;3.20;;;1.80;;
19619;SDS011;9957;52.282;21.110;2023-03-26T14:04:33;2.60;;;1.60;;
19619;SDS011;9957;52.282;21.110;2023-03-26T14:14:52;5.25;;;2.20;;
19619;SDS011;9957;52.282;21.110;2023-03-26T14:28:56;6.15;;;2.05;;
19619;SDS011;9957;52.282;21.110;2023-03-26T14:30:53;6.20;;;1.93;;
19619;SDS011;9957;52.282;21.110;2023-03-26T14:35:59;8.55;;;3.80;;
19619;SDS011;9957;52.282;21.110;2023-03-26T14:41:23;2.53;;;1.40;;
19619;SDS011;9957;52.282;21.110;2023-03-26T14:52:02;5.32;;;2.20;;
19619;SDS011;9957;52.282;21.110;2023-03-26T14:54:32;5.93;;;1.70;;
19619;SDS011;9957;52.282;21.110;2023-03-26T15:12:39;2.67;;;1.50;;
19619;SDS011;9957;52.282;21.110;2023-03-26T15:34:17;19.17;;;3.70;;
19619;SDS011;9957;52.282;21.110;2023-03-26T15:39:39;11.93;;;2.33;;
19619;SDS011;9957;52.282;21.110;2023-03-26T15:42:18;5.20;;;1.85;;
19619;SDS011;9957;52.282;21.110;2023-03-26T15:44:49;4.75;;;2.10;;
19619;SDS011;9957;52.282;21.110;2023-03-26T15:47:32;3.95;;;2.00;;
19619;SDS011;9957;52.282;21.110;2023-03-26T15:50:05;7.15;;;1.92;;
19619;SDS011;9957;52.282;21.110;2023-03-26T15:52:54;6.00;;;2.00;;
19619;SDS011;9957;52.282;21.110;2023-03-26T15:55:27;6.05;;;2.40;;
19619;SDS011;9957;52.282;21.110;2023-03-26T15:58:07;3.85;;;2.20;;
19619;SDS011;9957;52.282;21.110;2023-03-26T16:00:34;13.48;;;3.33;;
19619;SDS011;9957;52.282;21.110;2023-03-26T16:05:54;3.07;;;1.50;;
19619;SDS011;9957;52.282;21.110;2023-03-26T16:10:54;10.10;;;2.57;;
19619;SDS011;9957;52.282;21.110;2023-03-26T16:15:53;2.88;;;1.38;;
19619;SDS011;9957;52.282;21.110;2023-03-26T16:18:35;11.33;;;1.63;;
19619;SDS011;9957;52.282;21.110;2023-03-26T16:29:07;3.97;;;1.70;;
19619;SDS011;9957;52.282;21.110;2023-03-26T16:31:55;12.15;;;1.95;;
19619;SDS011;9957;52.282;21.110;2023-03-26T16:34:35;7.00;;;1.77;;
19619;SDS011;9957;52.282;21.110;2023-03-26T16:37:25;12.88;;;2.00;;
19619;SDS011;9957;52.282;21.110;2023-03-26T16:39:52;6.72;;;2.67;;
19619;SDS011;9957;52.282;21.110;2023-03-26T16:51:30;4.68;;;2.47;;
19619;SDS011;9957;52.282;21.110;2023-03-26T16:58:55;6.20;;;2.65;;
19619;SDS011;9957;52.282;21.110;2023-03-26T17:04:03;14.23;;;5.10;;
19619;SDS011;9957;52.282;21.110;2023-03-26T17:06:53;23.52;;;10.50;;
19619;SDS011;9957;52.282;21.110;2023-03-26T17:09:27;12.70;;;6.90;;
19619;SDS011;9957;52.282;21.110;2023-03-26T17:25:04;17.17;;;8.57;;
19619;SDS011;9957;52.282;21.110;2023-03-26T17:33:10;13.10;;;4.70;;
19619;SDS011;9957;52.282;21.110;2023-03-26T17:35:46;8.80;;;3.53;;
19619;SDS011;9957;52.282;21.110;2023-03-26T17:40:45;15.87;;;7.73;;
19619;SDS011;9957;52.282;21.110;2023-03-26T17:43:31;19.80;;;10.85;;
19619;SDS011;9957;52.282;21.110;2023-03-26T17:46:04;30.70;;;14.43;;
19619;SDS011;9957;52.282;21.110;2023-03-26T17:48:38;16.27;;;7.93;;
19619;SDS011;9957;52.282;21.110;2023-03-26T17:51:17;47.08;;;21.13;;
19619;SDS011;9957;52.282;21.110;2023-03-26T17:53:46;34.50;;;15.25;;
19619;SDS011;9957;52.282;21.110;2023-03-26T17:56:17;31.98;;;14.15;;
19619;SDS011;9957;52.282;21.110;2023-03-26T17:58:48;26.55;;;13.23;;
19619;SDS011;9957;52.282;21.110;2023-03-26T18:01:25;30.20;;;11.50;;
19619;SDS011;9957;52.282;21.110;2023-03-26T18:03:53;25.65;;;11.18;;
19619;SDS011;9957;52.282;21.110;2023-03-26T18:08:57;15.13;;;6.30;;
19619;SDS011;9957;52.282;21.110;2023-03-26T18:16:46;73.47;;;19.13;;
19619;SDS011;9957;52.282;21.110;2023-03-26T18:19:12;116.35;;;30.08;;
19619;SDS011;9957;52.282;21.110;2023-03-26T18:21:47;153.57;;;38.55;;
19619;SDS011;9957;52.282;21.110;2023-03-26T18:24:36;133.77;;;34.08;;
19619;SDS011;9957;52.282;21.110;2023-03-26T18:27:04;146.85;;;35.33;;
19619;SDS011;9957;52.282;21.110;2023-03-26T18:29:31;116.15;;;29.13;;
19619;SDS011;9957;52.282;21.110;2023-03-26T18:32:00;79.75;;;23.95;;
19619;SDS011;9957;52.282;21.110;2023-03-26T18:34:28;76.45;;;23.25;;
19619;SDS011;9957;52.282;21.110;2023-03-26T18:39:25;64.20;;;21.20;;
19619;SDS011;9957;52.282;21.110;2023-03-26T18:41:51;82.65;;;24.27;;
19619;SDS011;9957;52.282;21.110;2023-03-26T18:44:17;86.47;;;24.25;;
19619;SDS011;9957;52.282;21.110;2023-03-26T18:46:44;35.00;;;12.48;;
19619;SDS011;9957;52.282;21.110;2023-03-26T18:49:14;19.02;;;7.32;;
19619;SDS011;9957;52.282;21.110;2023-03-26T18:51:43;25.35;;;8.48;;
19619;SDS011;9957;52.282;21.110;2023-03-26T18:54:12;22.67;;;7.93;;
19619;SDS011;9957;52.282;21.110;2023-03-26T18:56:41;27.98;;;9.48;;
19619;SDS011;9957;52.282;21.110;2023-03-26T19:01:56;29.45;;;10.60;;
19619;SDS011;9957;52.282;21.110;2023-03-26T19:04:26;26.30;;;9.95;;
19619;SDS011;9957;52.282;21.110;2023-03-26T19:06:54;29.17;;;9.27;;
19619;SDS011;9957;52.282;21.110;2023-03-26T19:09:21;34.88;;;10.80;;
19619;SDS011;9957;52.282;21.110;2023-03-26T19:11:49;28.60;;;10.82;;
19619;SDS011;9957;52.282;21.110;2023-03-26T19:14:20;28.70;;;10.52;;
19619;SDS011;9957;52.282;21.110;2023-03-26T19:16:52;27.70;;;10.57;;
19619;SDS011;9957;52.282;21.110;2023-03-26T19:19:21;39.70;;;15.32;;
19619;SDS011;9957;52.282;21.110;2023-03-26T19:21:47;41.65;;;15.88;;
19619;SDS011;9957;52.282;21.110;2023-03-26T19:24:15;45.42;;;17.50;;
19619;SDS011;9957;52.282;21.110;2023-03-26T19:26:41;61.03;;;20.05;;
19619;SDS011;9957;52.282;21.110;2023-03-26T19:29:11;75.95;;;24.38;;
19619;SDS011;9957;52.282;21.110;2023-03-26T19:31:37;69.20;;;22.60;;
19619;SDS011;9957;52.282;21.110;2023-03-26T19:36:48;68.75;;;26.17;;
19619;SDS011;9957;52.282;21.110;2023-03-26T19:39:22;82.40;;;29.60;;
19619;SDS011;9957;52.282;21.110;2023-03-26T19:41:49;76.28;;;26.88;;
19619;SDS011;9957;52.282;21.110;2023-03-26T19:44:35;40.20;;;15.82;;
19619;SDS011;9957;52.282;21.110;2023-03-26T19:47:07;34.78;;;12.85;;
19619;SDS011;9957;52.282;21.110;2023-03-26T19:49:40;39.40;;;16.73;;
19619;SDS011;9957;52.282;21.110;2023-03-26T19:52:20;34.80;;;15.10;;
19619;SDS011;9957;52.282;21.110;2023-03-26T19:54:59;35.88;;;14.00;;
19619;SDS011;9957;52.282;21.110;2023-03-26T19:57:30;27.30;;;11.30;;
19619;SDS011;9957;52.282;21.110;2023-03-26T19:59:56;18.17;;;7.55;;
19619;SDS011;9957;52.282;21.110;2023-03-26T20:02:24;19.30;;;8.68;;
19619;SDS011;9957;52.282;21.110;2023-03-26T20:04:51;21.02;;;8.85;;
19619;SDS011;9957;52.282;21.110;2023-03-26T20:07:18;24.63;;;10.48;;
19619;SDS011;9957;52.282;21.110;2023-03-26T20:09:46;12.10;;;5.25;;
19619;SDS011;9957;52.282;21.110;2023-03-26T20:12:14;14.32;;;5.97;;
19619;SDS011;9957;52.282;21.110;2023-03-26T20:14:40;19.27;;;7.60;;
19619;SDS011;9957;52.282;21.110;2023-03-26T20:17:14;23.35;;;8.98;;
19619;SDS011;9957;52.282;21.110;2023-03-26T20:19:41;20.05;;;8.27;;
19619;SDS011;9957;52.282;21.110;2023-03-26T20:22:17;18.75;;;8.43;;
19619;SDS011;9957;52.282;21.110;2023-03-26T20:24:46;25.50;;;8.30;;
19619;SDS011;9957;52.282;21.110;2023-03-26T20:27:12;36.88;;;10.80;;
19619;SDS011;9957;52.282;21.110;2023-03-26T20:29:39;31.20;;;9.80;;
19619;SDS011;9957;52.282;21.110;2023-03-26T20:32:16;25.15;;;10.00;;
19619;SDS011;9957;52.282;21.110;2023-03-26T20:34:43;40.85;;;10.95;;
19619;SDS011;9957;52.282;21.110;2023-03-26T20:37:11;26.60;;;10.57;;
19619;SDS011;9957;52.282;21.110;2023-03-26T20:39:37;26.13;;;11.10;;
19619;SDS011;9957;52.282;21.110;2023-03-26T20:42:03;25.92;;;11.75;;
19619;SDS011;9957;52.282;21.110;2023-03-26T20:44:30;27.83;;;11.05;;
19619;SDS011;9957;52.282;21.110;2023-03-26T20:46:56;31.08;;;11.27;;
19619;SDS011;9957;52.282;21.110;2023-03-26T20:49:22;27.25;;;11.02;;
19619;SDS011;9957;52.282;21.110;2023-03-26T20:51:49;25.55;;;10.50;;
19619;SDS011;9957;52.282;21.110;2023-03-26T20:54:19;27.07;;;9.60;;
19619;SDS011;9957;52.282;21.110;2023-03-26T20:56:45;21.42;;;9.18;;
19619;SDS011;9957;52.282;21.110;2023-03-26T20:59:14;19.02;;;8.38;;
19619;SDS011;9957;52.282;21.110;2023-03-26T21:01:42;18.48;;;8.00;;
19619;SDS011;9957;52.282;21.110;2023-03-26T21:04:08;22.98;;;7.60;;
19619;SDS011;9957;52.282;21.110;2023-03-26T21:06:35;20.67;;;8.52;;
19619;SDS011;9957;52.282;21.110;2023-03-26T21:09:01;21.80;;;8.35;;
19619;SDS011;9957;52.282;21.110;2023-03-26T21:11:37;19.33;;;8.05;;
19619;SDS011;9957;52.282;21.110;2023-03-26T21:14:07;17.80;;;8.30;;
19619;SDS011;9957;52.282;21.110;2023-03-26T21:16:34;22.50;;;9.27;;
19619;SDS011;9957;52.282;21.110;2023-03-26T21:19:00;23.92;;;10.35;;
19619;SDS011;9957;52.282;21.110;2023-03-26T21:24:00;22.90;;;9.73;;
19619;SDS011;9957;52.282;21.110;2023-03-26T21:26:28;23.88;;;11.73;;
19619;SDS011;9957;52.282;21.110;2023-03-26T21:28:57;24.05;;;11.00;;
19619;SDS011;9957;52.282;21.110;2023-03-26T21:31:23;50.75;;;11.88;;
19619;SDS011;9957;52.282;21.110;2023-03-26T21:33:50;36.38;;;11.60;;
19619;SDS011;9957;52.282;21.110;2023-03-26T21:36:17;31.55;;;11.00;;
19619;SDS011;9957;52.282;21.110;2023-03-26T21:38:47;33.05;;;12.20;;
19619;SDS011;9957;52.282;21.110;2023-03-26T21:41:59;26.73;;;11.95;;
19619;SDS011;9957;52.282;21.110;2023-03-26T21:44:05;24.65;;;11.05;;
19619;SDS011;9957;52.282;21.110;2023-03-26T21:46:31;28.80;;;11.32;;
19619;SDS011;9957;52.282;21.110;2023-03-26T21:48:57;25.02;;;10.40;;
19619;SDS011;9957;52.282;21.110;2023-03-26T21:51:23;26.80;;;10.52;;
19619;SDS011;9957;52.282;21.110;2023-03-26T21:53:49;21.83;;;9.98;;
19619;SDS011;9957;52.282;21.110;2023-03-26T21:59:04;29.42;;;11.43;;
19619;SDS011;9957;52.282;21.110;2023-03-26T22:09:08;26.38;;;10.52;;
19619;SDS011;9957;52.282;21.110;2023-03-26T22:11:34;29.27;;;11.25;;
19619;SDS011;9957;52.282;21.110;2023-03-26T22:14:00;29.13;;;10.85;;
19619;SDS011;9957;52.282;21.110;2023-03-26T22:16:26;24.65;;;10.90;;
19619;SDS011;9957;52.282;21.110;2023-03-26T22:18:53;30.75;;;12.27;;
19619;SDS011;9957;52.282;21.110;2023-03-26T22:21:19;30.93;;;13.37;;
19619;SDS011;9957;52.282;21.110;2023-03-26T22:23:47;33.33;;;13.27;;